This is the latest recevied weather packets stored in our database for station/object K1ZK-13. If no packets are shown the sender has not sent any weather packets the latest 1 day(s).
| Time | Temp. | Humidity | Pressure | Rain* | Wind** | Luminosity | Snow |
|---|---|---|---|---|---|---|---|
| 1778004096 | 23.33° C | 51% | 1001.7 hPa | 0 mm | 1.79 m/s, 158° | 100 W/m² | - |
| 1778003791 | 23.33° C | 51% | 1001.9 hPa | 0 mm | 1.79 m/s, 158° | 100 W/m² | - |
| 1778002578 | 23.33° C | 52% | 1001.9 hPa | 0 mm | 1.34 m/s, 131° | 69 W/m² | - |
| 1778002274 | 23.33° C | 52% | 1001.7 hPa | 0 mm | 1.34 m/s, 131° | 69 W/m² | - |
| 1778001972 | 23.33° C | 53% | 1001.8 hPa | 0 mm | 0.89 m/s, 130° | 62 W/m² | - |
| 1778001668 | 23.89° C | 51% | 1001.8 hPa | 0 mm | 1.79 m/s, 89° | 240 W/m² | - |
| 1778001363 | 23.89° C | 51% | 1001.7 hPa | 0 mm | 1.79 m/s, 89° | 240 W/m² | - |
| 1778001061 | 23.33° C | 52% | 1001.9 hPa | 0 mm | 0.89 m/s, 110° | 653 W/m² | - |
| 1778000757 | 23.33° C | 52% | 1001.9 hPa | 0 mm | 0.89 m/s, 93° | 306 W/m² | - |
| 1778000454 | 23.33° C | 52% | 1001.9 hPa | 0 mm | 3.13 m/s, 149° | 321 W/m² | - |
| 1778000149 | 23.33° C | 54% | 1002.3 hPa | 0 mm | 1.79 m/s, 136° | 800 W/m² | - |
| 1777999845 | 23.89° C | 52% | 1002.3 hPa | 0 mm | 3.13 m/s, 154° | 307 W/m² | - |
| 1777999541 | 23.89° C | 54% | 1002.2 hPa | 0 mm | 1.34 m/s, 154° | 629 W/m² | - |
| 1777999239 | 23.89° C | 52% | 1002.4 hPa | 0 mm | 1.79 m/s, 180° | 637 W/m² | - |
| 1777998937 | 23.89° C | 52% | 1002.5 hPa | 0 mm | 1.79 m/s, 125° | 728 W/m² | - |
| 1777998633 | 23.89° C | 52% | 1002.8 hPa | 0 mm | 2.68 m/s, 87° | 597 W/m² | - |
| 1777998327 | 23.89° C | 53% | 1002.9 hPa | 0 mm | 1.79 m/s, 168° | 657 W/m² | - |
| 1777998024 | 23.89° C | 54% | 1003 hPa | 0 mm | 0.89 m/s, 151° | 398 W/m² | - |
| 1777997720 | 23.33° C | 55% | 1003.2 hPa | 0 mm | 0.89 m/s, 113° | 687 W/m² | - |
| 1777997417 | 23.33° C | 55% | 1003 hPa | 0 mm | 1.79 m/s, 141° | 370 W/m² | - |
| 1777997116 | 22.78° C | 55% | 1003.3 hPa | 0 mm | 1.34 m/s, 113° | 647 W/m² | - |
| 1777996813 | 22.78° C | 56% | 1003.4 hPa | 0 mm | 1.79 m/s, 164° | 578 W/m² | - |
| 1777996508 | 22.78° C | 56% | 1003.6 hPa | 0 mm | 2.24 m/s, 75° | 553 W/m² | - |
| 1777996205 | 23.33° C | 55% | 1003.6 hPa | 0 mm | 3.13 m/s, 228° | 585 W/m² | - |
| 1777995902 | 23.33° C | 53% | 1003.5 hPa | 0 mm | 3.58 m/s, 188° | 641 W/m² | - |
* Rain latest hour (hover to see other rain measurements)
** Current wind speed in m/s (hover to see current wind gust speed)